Time;durP1;ratioP1;P1;durP2;ratioP2;P2;SDS_P1;SDS_P2;PMS_P1;PMS_P2;Temp;Humidity;BMP_temperature;BMP_pressure;BME280_temperature;BME280_humidity;BME280_pressure;Samples;Min_cycle;Max_cycle;Signal;HPM_P1;HPM_P2
2021/11/21 00:02:03;;;;;;;;;55.00;41.50;;;;;8.77;69.55;101441.31;4972489;28;45425;-74
2021/11/21 00:04:28;;;;;;;;;46.00;35.25;;;;;8.82;69.18;101443.69;4973136;28;45459;-74
2021/11/21 00:06:53;;;;;;;;;43.50;35.25;;;;;8.85;68.87;101438.28;4974473;28;45418;-73
2021/11/21 00:09:19;;;;;;;;;47.25;36.25;;;;;8.86;68.90;101432.94;4975903;28;47009;-74
2021/11/21 00:11:44;;;;;;;;;45.25;29.50;;;;;8.80;68.83;101419.34;4972486;28;45459;-74
2021/11/21 00:14:10;;;;;;;;;51.00;35.50;;;;;8.87;68.70;101428.53;4974222;28;45344;-74
2021/11/21 00:16:36;;;;;;;;;41.00;33.67;;;;;8.84;68.89;101415.63;4972673;28;45269;-73
2021/11/21 00:19:02;;;;;;;;;48.50;33.25;;;;;8.90;68.71;101417.91;4971694;28;45459;-76
2021/11/21 00:21:28;;;;;;;;;50.50;38.50;;;;;8.92;68.92;101410.78;4972815;28;45575;-74
2021/11/21 00:23:54;;;;;;;;;45.25;35.00;;;;;8.94;68.84;101415.94;4970730;28;45409;-74
2021/11/21 00:26:19;;;;;;;;;47.25;38.00;;;;;8.93;68.72;101414.28;4971762;28;45369;-73
2021/11/21 00:28:45;;;;;;;;;37.00;29.75;;;;;8.93;68.38;101409.03;4970982;28;46029;-74
2021/11/21 00:31:10;;;;;;;;;45.50;36.00;;;;;8.91;68.61;101406.47;4971512;28;45478;-75
2021/11/21 00:33:36;;;;;;;;;35.75;25.00;;;;;8.90;68.49;101402.19;4974350;28;45344;-73
2021/11/21 00:36:01;;;;;;;;;49.50;35.25;;;;;8.81;68.60;101405.28;4971992;28;45669;-74
2021/11/21 00:38:27;;;;;;;;;39.25;30.25;;;;;8.83;68.73;101408.69;4971360;28;45808;-72
2021/11/21 00:40:52;;;;;;;;;43.50;35.25;;;;;8.85;68.80;101412.09;4971481;28;47352;-74
2021/11/21 00:43:21;;;;;;;;;47.00;34.25;;;;;8.83;68.63;101403.44;4971334;28;45349;-74
2021/11/21 00:45:47;;;;;;;;;43.25;35.00;;;;;8.82;68.69;101399.13;4972902;28;45509;-74
2021/11/21 00:48:23;;;;;;;;;45.25;35.50;;;;;8.83;68.65;101399.03;4971450;28;46036;-74
2021/11/21 00:50:54;;;;;;;;;32.50;30.75;;;;;8.81;68.78;101400.06;4971455;28;45541;-73
2021/11/21 00:53:20;;;;;;;;;47.00;35.50;;;;;8.78;68.85;101390.59;4971944;28;45502;-74
2021/11/21 00:55:54;;;;;;;;;45.75;34.50;;;;;8.73;68.77;101383.00;4974906;28;45376;-73
2021/11/21 00:58:20;;;;;;;;;38.25;34.50;;;;;8.72;68.64;101380.50;4971991;28;45304;-75
2021/11/21 01:00:48;;;;;;;;;51.50;36.00;;;;;8.73;69.05;101382.16;4972713;28;45463;-73
2021/11/21 01:03:17;;;;;;;;;39.00;32.25;;;;;8.71;68.55;101374.38;4988447;28;45491;-73
2021/11/21 01:05:44;;;;;;;;;39.25;34.50;;;;;8.70;68.61;101372.69;4974648;28;45617;-74
2021/11/21 01:08:11;;;;;;;;;39.25;34.75;;;;;8.68;68.65;101364.09;4971577;28;47551;-73
2021/11/21 01:10:37;;;;;;;;;39.50;34.00;;;;;8.70;69.16;101367.44;4971211;27;45475;-74
2021/11/21 01:13:04;;;;;;;;;46.00;31.00;;;;;8.73;69.03;101369.91;4969253;28;45527;-75
2021/11/21 01:15:29;;;;;;;;;40.00;34.75;;;;;8.74;68.82;101368.13;4968268;28;45468;-73
2021/11/21 01:17:57;;;;;;;;;42.33;34.00;;;;;8.76;68.65;101371.53;4970049;28;46174;-73
2021/11/21 01:20:25;;;;;;;;;50.25;37.00;;;;;8.78;68.87;101369.63;4970957;28;45474;-76
2021/11/21 01:22:51;;;;;;;;;38.25;25.75;;;;;8.82;69.06;101370.31;4982028;28;45308;-74
2021/11/21 01:25:18;;;;;;;;;48.75;38.25;;;;;8.85;69.19;101359.69;4969449;28;45640;-74
2021/11/21 01:27:44;;;;;;;;;40.75;33.50;;;;;8.88;68.80;101367.34;4971612;28;46762;-74
2021/11/21 01:30:13;;;;;;;;;48.75;37.25;;;;;8.90;68.92;101357.66;4971182;28;45470;-75
2021/11/21 01:32:39;;;;;;;;;51.25;38.00;;;;;8.97;68.94;101358.13;4970671;28;45371;-73
2021/11/21 01:35:05;;;;;;;;;54.75;39.25;;;;;9.06;68.85;101354.97;4970713;28;45405;-75
2021/11/21 01:37:30;;;;;;;;;54.75;41.50;;;;;9.14;68.38;101354.53;4969062;28;46492;-74
2021/11/21 01:39:56;;;;;;;;;59.00;39.25;;;;;9.19;68.24;101349.88;4970701;28;45561;-75
2021/11/21 01:42:22;;;;;;;;;49.25;37.25;;;;;9.24;68.56;101339.97;4970451;28;45455;-74
2021/11/21 01:44:48;;;;;;;;;48.25;37.00;;;;;9.26;68.61;101348.56;4985583;27;45491;-74
2021/11/21 01:47:13;;;;;;;;;48.25;33.00;;;;;9.26;68.65;101343.31;4969008;28;47201;-75
2021/11/21 01:49:39;;;;;;;;;49.75;36.25;;;;;9.24;68.47;101345.19;4971118;28;45426;-75
2021/11/21 01:52:05;;;;;;;;;47.00;37.00;;;;;9.29;68.59;101340.53;4970503;28;45367;-74
2021/11/21 01:54:30;;;;;;;;;46.75;38.50;;;;;9.32;68.67;101350.00;4972395;28;45511;-74
2021/11/21 01:56:55;;;;;;;;;52.25;37.00;;;;;9.29;68.84;101353.66;4970037;28;47055;-74
2021/11/21 01:59:21;;;;;;;;;49.00;36.25;;;;;9.34;68.45;101350.72;4971731;28;45454;-74
2021/11/21 02:01:47;;;;;;;;;54.25;37.25;;;;;9.28;68.60;101336.22;4973310;28;45325;-74
2021/11/21 02:04:12;;;;;;;;;49.25;36.75;;;;;9.32;68.75;101337.72;4971615;28;45455;-75
2021/11/21 02:06:38;;;;;;;;;44.00;35.25;;;;;9.30;68.73;101329.13;4967969;28;47994;-74
2021/11/21 02:09:04;;;;;;;;;49.00;38.75;;;;;9.29;68.80;101337.06;4969079;28;45395;-76
2021/11/21 02:11:30;;;;;;;;;38.75;31.00;;;;;9.25;69.06;101329.38;4970844;28;45433;-75
2021/11/21 02:13:56;;;;;;;;;40.00;34.75;;;;;9.22;69.27;101333.94;4970570;28;45339;-76
2021/11/21 02:16:24;;;;;;;;;39.00;28.25;;;;;9.21;69.32;101335.75;4969619;28;45773;-75
2021/11/21 02:18:50;;;;;;;;;26.33;26.33;;;;;9.25;68.76;101332.00;4975188;28;45348;-75
2021/11/21 02:21:18;;;;;;;;;28.33;22.67;;;;;9.28;68.61;101319.66;4973106;28;45343;-75
2021/11/21 02:23:47;;;;;;;;;27.67;22.00;;;;;9.30;68.54;101317.78;4973781;28;45487;-75
2021/11/21 02:26:15;;;;;;;;;32.33;22.67;;;;;9.31;68.57;101325.53;4970912;28;45469;-74
2021/11/21 02:28:41;;;;;;;;;26.33;22.00;;;;;9.29;68.58;101319.56;4970177;28;45802;-74
2021/11/21 02:31:07;;;;;;;;;31.33;25.33;;;;;9.23;68.76;101312.06;4971537;28;45573;-75
2021/11/21 02:33:33;;;;;;;;;29.00;27.33;;;;;9.17;69.09;101307.16;4973899;28;45594;-74
2021/11/21 02:36:02;;;;;;;;;29.00;22.50;;;;;9.16;68.97;101310.72;4974277;28;45932;-74
2021/11/21 02:38:29;;;;;;;;;42.50;31.00;;;;;9.20;68.90;101310.47;4974719;28;45345;-75
2021/11/21 02:40:57;;;;;;;;;31.67;26.00;;;;;9.19;68.80;101307.94;4976138;28;45479;-75
2021/11/21 02:43:23;;;;;;;;;29.00;25.00;;;;;9.18;68.91;101307.06;4974881;28;45286;-75
2021/11/21 02:45:52;;;;;;;;;37.00;26.00;;;;;9.16;68.83;101300.22;4971799;28;45684;-75
2021/11/21 02:48:19;;;;;;;;;34.00;25.33;;;;;9.14;69.07;101295.09;4973500;28;45384;-75
2021/11/21 02:50:45;;;;;;;;;31.67;25.33;;;;;9.14;69.01;101291.63;4972341;28;45318;-75
2021/11/21 02:53:13;;;;;;;;;33.75;28.25;;;;;9.10;69.08;101290.13;4971026;28;45460;-75
2021/11/21 02:55:38;;;;;;;;;29.00;21.67;;;;;9.05;68.91;101282.53;4972741;28;47170;-75
2021/11/21 02:58:04;;;;;;;;;28.33;20.33;;;;;9.02;69.18;101286.16;4972832;28;45374;-75
2021/11/21 03:00:33;;;;;;;;;34.33;25.67;;;;;9.00;69.16;101282.78;4974355;28;45474;-75
2021/11/21 03:02:58;;;;;;;;;34.33;24.00;;;;;9.01;69.49;101276.63;4969301;28;45580;-75
2021/11/21 03:05:23;;;;;;;;;37.00;28.33;;;;;8.98;69.62;101268.94;4966629;28;47216;-75
2021/11/21 03:07:49;;;;;;;;;34.33;27.67;;;;;8.97;69.56;101269.03;4969588;28;45365;-75
2021/11/21 03:10:18;;;;;;;;;30.00;23.67;;;;;9.00;69.72;101263.59;4971618;28;45404;-76
2021/11/21 03:12:46;;;;;;;;;30.33;25.00;;;;;8.98;69.58;101261.09;4975091;28;45485;-75
2021/11/21 03:15:12;;;;;;;;;24.67;24.67;;;;;9.00;69.55;101251.34;4973314;28;46398;-75
2021/11/21 03:17:39;;;;;;;;;28.00;23.67;;;;;9.00;69.46;101243.47;4972533;28;45508;-75
2021/11/21 03:20:06;;;;;;;;;27.00;21.33;;;;;8.94;69.36;101243.00;4973801;28;45320;-76
2021/11/21 03:22:31;;;;;;;;;29.67;23.33;;;;;8.84;69.80;101227.81;4975588;28;45570;-76
2021/11/21 03:24:57;;;;;;;;;36.00;24.33;;;;;8.92;69.77;101232.63;4973257;28;45428;-76
2021/11/21 03:27:23;;;;;;;;;26.67;23.00;;;;;8.91;69.72;101233.53;4972770;28;45297;-76
2021/11/21 03:29:49;;;;;;;;;23.00;20.33;;;;;8.92;69.61;101232.63;4971042;28;45422;-75
2021/11/21 03:32:16;;;;;;;;;29.33;22.00;;;;;8.92;69.53;101235.25;4972012;28;45702;-74
2021/11/21 03:34:42;;;;;;;;;27.67;26.33;;;;;8.95;69.59;101235.03;4970793;28;46149;-75
2021/11/21 03:37:08;;;;;;;;;35.67;27.33;;;;;8.92;69.40;101230.00;4973458;28;45637;-75
2021/11/21 03:39:34;;;;;;;;;24.33;21.33;;;;;8.89;69.65;101238.06;4973761;28;45371;-75
2021/11/21 03:41:59;;;;;;;;;25.67;23.00;;;;;8.87;69.71;101238.16;4972757;27;45351;-75
2021/11/21 03:44:25;;;;;;;;;27.67;24.00;;;;;8.91;70.10;101242.25;4971913;28;49729;-75
2021/11/21 03:46:50;;;;;;;;;26.67;22.33;;;;;8.92;69.77;101235.25;4970793;28;45371;-75
2021/11/21 03:49:15;;;;;;;;;30.00;23.33;;;;;8.94;69.63;101232.53;4972977;28;45323;-74
2021/11/21 03:51:41;;;;;;;;;29.00;21.67;;;;;8.92;69.79;101230.00;4976464;28;45338;-75
2021/11/21 03:54:07;;;;;;;;;27.33;22.00;;;;;8.93;69.57;101226.44;4970696;28;47350;-75
2021/11/21 03:56:32;;;;;;;;;22.33;20.33;;;;;8.92;69.40;101219.50;4971498;28;45934;-76
2021/11/21 03:58:58;;;;;;;;;23.67;18.00;;;;;8.95;69.66;101215.88;4972780;28;45393;-75
2021/11/21 04:01:23;;;;;;;;;26.67;21.67;;;;;8.92;69.80;101224.75;4971509;28;45262;-74
2021/11/21 04:03:49;;;;;;;;;24.00;20.00;;;;;8.90;69.69;101221.41;4973364;28;46567;-73
2021/11/21 04:06:14;;;;;;;;;29.33;23.00;;;;;8.86;69.92;101228.59;4973143;28;45432;-74
2021/11/21 04:08:42;;;;;;;;;34.67;23.67;;;;;8.87;70.23;101226.81;4972943;28;45641;-75
2021/11/21 04:11:07;;;;;;;;;25.00;23.00;;;;;8.83;69.89;101230.53;4972530;28;45331;-75
2021/11/21 04:13:32;;;;;;;;;25.00;20.67;;;;;8.82;69.95;101226.22;4970308;28;46878;-74
2021/11/21 04:15:58;;;;;;;;;41.67;28.33;;;;;8.82;69.99;101219.22;4972999;28;45400;-75
2021/11/21 04:18:23;;;;;;;;;27.00;23.33;;;;;8.88;70.06;101224.09;4973212;28;45522;-75
2021/11/21 04:20:48;;;;;;;;;34.33;23.00;;;;;8.92;69.95;101219.50;4972072;28;45494;-75
2021/11/21 04:23:14;;;;;;;;;22.67;20.67;;;;;8.87;69.96;101195.38;4970670;28;46912;-74
2021/11/21 04:25:39;;;;;;;;;25.67;17.67;;;;;8.91;70.14;101194.25;4970927;28;45519;-74
2021/11/21 04:28:05;;;;;;;;;32.00;22.33;;;;;8.93;69.84;101196.78;4972450;28;45636;-75
2021/11/21 04:30:31;;;;;;;;;31.00;24.00;;;;;8.94;69.94;101199.31;4974667;28;45439;-74
2021/11/21 04:32:56;;;;;;;;;31.00;26.67;;;;;8.95;69.97;101187.03;4970751;28;47360;-74
2021/11/21 04:35:22;;;;;;;;;28.33;17.00;;;;;8.97;69.82;101195.66;4971847;28;45548;-74
2021/11/21 04:37:48;;;;;;;;;33.33;21.67;;;;;8.98;70.09;101192.94;4972552;28;45568;-75
2021/11/21 04:40:15;;;;;;;;;30.33;23.00;;;;;8.98;69.91;101187.72;4973010;28;45296;-77
2021/11/21 04:42:41;;;;;;;;;21.67;21.67;;;;;8.98;69.82;101187.72;4978880;28;46375;-74
2021/11/21 04:45:08;;;;;;;;;34.33;26.00;;;;;8.99;69.73;101181.53;4975430;28;45285;-75
2021/11/21 04:47:34;;;;;;;;;30.67;24.00;;;;;8.95;70.02;101176.56;4977898;28;45478;-76
2021/11/21 04:49:59;;;;;;;;;27.00;22.00;;;;;8.95;70.23;101180.00;4974308;28;45371;-74
2021/11/21 04:52:25;;;;;;;;;37.33;26.00;;;;;8.95;70.22;101173.94;4971518;28;46229;-73
2021/11/21 04:54:50;;;;;;;;;33.00;19.33;;;;;8.92;70.55;101174.97;4973234;28;45737;-72
2021/11/21 04:57:17;;;;;;;;;33.00;24.00;;;;;8.88;70.77;101170.84;4972130;28;45713;-74
2021/11/21 04:59:43;;;;;;;;;30.50;22.50;;;;;8.90;70.53;101171.63;4972068;28;45563;-72
2021/11/21 05:02:08;;;;;;;;;27.67;22.67;;;;;8.88;70.78;101168.25;4971677;28;45312;-74
2021/11/21 05:04:34;;;;;;;;;24.00;23.00;;;;;8.85;70.60;101168.44;4970559;28;45588;-73
2021/11/21 05:07:00;;;;;;;;;34.25;24.50;;;;;8.79;71.15;101164.38;4973290;27;45229;-72
2021/11/21 05:09:25;;;;;;;;;36.67;21.33;;;;;8.79;70.91;101161.75;4972665;28;45384;-72
2021/11/21 05:11:50;;;;;;;;;29.33;23.00;;;;;8.71;71.04;101143.88;4969540;28;46074;-73
2021/11/21 05:14:18;;;;;;;;;29.00;23.33;;;;;8.78;71.25;101152.22;4971566;28;45490;-73
2021/11/21 05:16:44;;;;;;;;;23.33;15.00;;;;;8.78;70.77;101148.75;4971749;28;45384;-73
2021/11/21 05:19:09;;;;;;;;;27.33;19.33;;;;;8.80;70.88;101147.75;4971707;28;45479;-72
2021/11/21 05:21:35;;;;;;;;;30.67;24.33;;;;;8.81;70.92;101149.44;4973550;28;45367;-73
2021/11/21 05:24:03;;;;;;;;;31.00;26.00;;;;;8.79;71.19;101147.84;4970989;28;45437;-73
2021/11/21 05:26:29;;;;;;;;;28.33;20.67;;;;;8.79;71.22;101139.97;4986558;28;45411;-72
2021/11/21 05:28:55;;;;;;;;;31.00;23.33;;;;;8.77;71.29;101144.44;4972500;28;45454;-73
2021/11/21 05:31:20;;;;;;;;;34.67;21.00;;;;;8.69;71.29;101140.53;4971219;28;46199;-74
2021/11/21 05:33:47;;;;;;;;;33.00;26.67;;;;;8.66;71.27;101140.69;4973256;28;45368;-73
2021/11/21 05:36:14;;;;;;;;;34.00;28.75;;;;;8.62;71.74;101143.59;4971659;28;45301;-73
2021/11/21 05:38:41;;;;;;;;;32.33;28.00;;;;;8.58;72.00;101142.94;4971648;28;45570;-73
2021/11/21 05:41:06;;;;;;;;;44.75;31.00;;;;;8.54;72.24;101144.06;4971445;28;46371;-73
2021/11/21 05:43:32;;;;;;;;;31.50;22.50;;;;;8.50;72.17;101139.94;4971742;28;45654;-73
2021/11/21 05:45:58;;;;;;;;;38.25;29.75;;;;;8.50;72.92;101153.03;4972533;28;45257;-73
2021/11/21 05:48:23;;;;;;;;;35.75;27.25;;;;;8.50;72.42;101145.19;4978626;28;45463;-73
2021/11/21 05:50:49;;;;;;;;;26.67;26.00;;;;;8.46;72.74;101144.50;4977808;28;45604;-74
2021/11/21 05:53:15;;;;;;;;;42.00;27.00;;;;;8.42;72.59;101143.81;4979094;28;45358;-73
2021/11/21 05:55:40;;;;;;;;;36.50;28.25;;;;;8.42;72.86;101141.19;4980345;28;45266;-73
2021/11/21 05:58:06;;;;;;;;;39.25;25.25;;;;;8.41;72.94;101143.91;4981724;28;45390;-73
2021/11/21 06:00:31;;;;;;;;;32.75;21.50;;;;;8.39;73.00;101138.75;4975865;28;45494;-72
2021/11/21 06:02:57;;;;;;;;;35.25;26.75;;;;;8.35;73.04;101128.53;4969396;28;45284;-74
2021/11/21 06:05:22;;;;;;;;;42.25;25.75;;;;;8.36;72.93;101131.06;4971643;28;45481;-72
2021/11/21 06:07:48;;;;;;;;;30.50;21.25;;;;;8.37;73.35;101130.16;4969138;28;45502;-73
2021/11/21 06:10:14;;;;;;;;;38.75;28.75;;;;;8.37;73.49;101124.91;4971842;28;46930;-72
2021/11/21 06:12:39;;;;;;;;;40.75;31.50;;;;;8.39;73.16;101119.56;4973310;28;45375;-72
2021/11/21 06:15:07;;;;;;;;;36.25;29.25;;;;;8.39;72.89;101117.81;4969472;28;45310;-72
2021/11/21 06:17:32;;;;;;;;;33.00;26.50;;;;;8.39;73.62;101117.81;4970892;28;45550;-72
2021/11/21 06:19:58;;;;;;;;;28.25;25.00;;;;;8.41;73.61;101122.97;4970976;28;46128;-72
2021/11/21 06:22:24;;;;;;;;;32.50;22.25;;;;;8.38;73.20;101118.75;4966667;28;45258;-72
2021/11/21 06:24:50;;;;;;;;;29.00;27.00;;;;;8.38;73.29;101131.84;4971209;28;45427;-72
2021/11/21 06:27:16;;;;;;;;;30.50;22.00;;;;;8.34;73.24;101130.34;4973597;28;45641;-72
2021/11/21 06:29:41;;;;;;;;;27.25;20.50;;;;;8.31;73.25;101122.63;4970630;28;45414;-72
2021/11/21 06:32:07;;;;;;;;;40.25;26.50;;;;;8.32;73.55;101126.94;4968833;28;45357;-72
2021/11/21 06:34:33;;;;;;;;;31.25;21.25;;;;;8.29;73.77;101127.13;4970039;28;45315;-71
2021/11/21 06:36:58;;;;;;;;;32.25;25.75;;;;;8.29;73.75;101121.91;4970996;28;45361;-73
2021/11/21 06:39:24;;;;;;;;;29.75;21.25;;;;;8.29;73.94;101127.13;4972469;28;46599;-72
2021/11/21 06:41:50;;;;;;;;;28.00;20.00;;;;;8.34;74.31;101113.75;4970228;28;45514;-72
2021/11/21 06:44:15;;;;;;;;;36.00;19.00;;;;;8.37;73.57;101116.22;4970572;28;45643;-72
2021/11/21 06:46:41;;;;;;;;;29.00;24.33;;;;;8.36;73.61;101117.97;4971075;28;45355;-71
2021/11/21 06:49:07;;;;;;;;;18.33;17.33;;;;;8.39;73.59;101112.59;4972699;28;46087;-74
2021/11/21 06:51:32;;;;;;;;;19.00;18.67;;;;;8.40;73.72;101114.25;4969410;28;45257;-73
2021/11/21 06:53:58;;;;;;;;;23.33;17.33;;;;;8.41;73.49;101100.22;4971175;28;45277;-74
2021/11/21 06:56:24;;;;;;;;;27.67;16.67;;;;;8.43;73.89;101108.84;4969294;28;45875;-73
2021/11/21 06:58:50;;;;;;;;;25.00;20.67;;;;;8.47;73.58;101111.31;4963900;28;46909;-72
2021/11/21 07:01:15;;;;;;;;;26.33;20.33;;;;;8.48;73.10;101115.63;4971790;28;45193;-74
2021/11/21 07:03:41;;;;;;;;;26.00;19.00;;;;;8.51;73.19;101102.31;4971084;28;45499;-74
2021/11/21 07:06:06;;;;;;;;;28.67;19.00;;;;;8.60;73.19;101109.63;4971729;28;45355;-74
2021/11/21 07:08:32;;;;;;;;;25.67;21.00;;;;;8.69;73.03;101109.09;4973532;28;47452;-75
2021/11/21 07:10:58;;;;;;;;;20.33;16.67;;;;;8.75;72.80;101110.50;4973595;28;45407;-75
2021/11/21 07:13:23;;;;;;;;;25.67;17.33;;;;;8.74;72.43;101112.28;4973401;28;45943;-75
2021/11/21 07:15:50;;;;;;;;;28.00;23.00;;;;;8.66;73.00;101118.91;4974252;28;45348;-74
2021/11/21 07:18:15;;;;;;;;;27.67;22.33;;;;;8.56;72.99;101110.75;4974574;28;45746;-75
2021/11/21 07:20:41;;;;;;;;;25.00;20.67;;;;;8.52;72.94;101111.88;4973039;28;45342;-74
2021/11/21 07:23:09;;;;;;;;;35.75;25.50;;;;;8.50;73.31;101113.75;4973204;28;45527;-76
2021/11/21 07:25:34;;;;;;;;;32.67;25.33;;;;;8.49;73.48;101106.81;4973246;28;45380;-75
2021/11/21 07:28:00;;;;;;;;;28.33;25.00;;;;;8.50;73.24;101105.91;4987391;28;46371;-75
2021/11/21 07:30:25;;;;;;;;;26.25;18.25;;;;;8.47;73.27;101104.31;4974950;28;45369;-75
2021/11/21 07:32:53;;;;;;;;;30.00;22.00;;;;;8.48;73.18;101105.97;4972154;28;47501;-75
2021/11/21 07:35:19;;;;;;;;;33.75;23.50;;;;;8.48;73.29;101113.00;4973158;28;45552;-76
2021/11/21 07:37:45;;;;;;;;;33.00;22.00;;;;;8.49;73.00;101109.44;4971455;28;45378;-75
2021/11/21 07:40:12;;;;;;;;;23.33;19.00;;;;;8.46;72.96;101107.00;4973422;28;45644;-74
2021/11/21 07:42:39;;;;;;;;;25.25;19.00;;;;;8.51;73.21;101110.19;4973902;28;45274;-76
2021/11/21 07:45:07;;;;;;;;;24.67;19.33;;;;;8.52;72.91;101106.63;4971222;28;45377;-75
2021/11/21 07:47:33;;;;;;;;;23.00;17.33;;;;;8.55;72.94;101107.31;4980289;28;46776;-76
2021/11/21 07:49:58;;;;;;;;;19.67;15.33;;;;;8.57;72.82;101109.81;4972625;28;45302;-77
2021/11/21 07:52:25;;;;;;;;;22.00;19.67;;;;;8.58;72.73;101107.09;4973253;28;45468;-74
2021/11/21 07:54:51;;;;;;;;;25.67;18.33;;;;;8.54;72.82;101102.16;4973828;28;45421;-77
2021/11/21 07:57:16;;;;;;;;;23.67;21.00;;;;;8.52;72.57;101098.78;4973551;28;45398;-75
2021/11/21 07:59:42;;;;;;;;;20.33;19.00;;;;;8.49;72.71;101094.56;4971334;28;45543;-76
2021/11/21 08:02:07;;;;;;;;;24.33;20.67;;;;;8.50;72.85;101090.19;4972462;28;45390;-77
2021/11/21 08:04:32;;;;;;;;;21.67;20.00;;;;;8.51;72.58;101095.34;4971947;28;45407;-75
2021/11/21 08:06:58;;;;;;;;;16.33;15.00;;;;;8.58;73.07;101095.81;4973561;28;45298;-77
2021/11/21 08:09:23;;;;;;;;;29.00;23.33;;;;;8.66;72.90;101100.59;4973562;28;45324;-75
2021/11/21 08:11:49;;;;;;;;;29.67;22.00;;;;;8.70;72.84;101097.66;4972277;28;45411;-75
2021/11/21 08:14:14;;;;;;;;;27.00;20.00;;;;;8.74;72.67;101098.34;4971155;28;45417;-75
2021/11/21 08:16:41;;;;;;;;;25.00;18.33;;;;;8.74;72.94;101096.56;4972626;28;46174;-75
2021/11/21 08:19:08;;;;;;;;;24.33;19.33;;;;;8.75;72.66;101098.22;4970345;28;45582;-75
2021/11/21 08:21:34;;;;;;;;;22.33;21.00;;;;;8.78;72.63;101097.19;4974382;28;45367;-78
2021/11/21 08:23:59;;;;;;;;;25.00;18.67;;;;;8.77;72.30;101097.31;4971821;28;45310;-75
2021/11/21 08:26:25;;;;;;;;;22.00;20.00;;;;;8.79;72.65;101095.44;4972798;28;46539;-75
2021/11/21 08:28:50;;;;;;;;;33.25;22.75;;;;;8.81;72.28;101094.41;4971785;28;45439;-77
2021/11/21 08:31:16;;;;;;;;;26.00;22.33;;;;;8.82;72.51;101087.38;4972901;28;45451;-75
2021/11/21 08:33:41;;;;;;;;;35.33;22.33;;;;;8.84;72.49;101091.59;4974437;28;45389;-75
2021/11/21 08:36:07;;;;;;;;;27.00;19.00;;;;;8.89;72.22;101094.78;4970612;28;46455;-73
2021/11/21 08:38:33;;;;;;;;;20.33;18.33;;;;;8.92;72.38;101093.75;4972627;28;45605;-77
2021/11/21 08:40:58;;;;;;;;;24.00;20.33;;;;;8.96;72.05;101095.25;4970896;28;45476;-75
2021/11/21 08:43:23;;;;;;;;;21.00;16.33;;;;;8.88;72.17;101082.59;4972218;28;45319;-76
2021/11/21 08:45:49;;;;;;;;;21.67;18.33;;;;;8.89;72.02;101078.22;4971712;28;47012;-75
2021/11/21 08:48:15;;;;;;;;;32.33;21.33;;;;;8.88;72.20;101079.16;4971808;28;45415;-74
2021/11/21 08:50:40;;;;;;;;;19.33;14.00;;;;;8.88;71.75;101087.03;4970685;28;45507;-74
2021/11/21 08:53:05;;;;;;;;;24.00;17.33;;;;;8.84;72.05;101096.84;4972154;28;45581;-74
2021/11/21 08:55:31;;;;;;;;;25.67;15.67;;;;;8.86;72.04;101099.34;4972272;28;46064;-75
2021/11/21 08:57:56;;;;;;;;;32.00;22.33;;;;;8.86;71.89;101091.50;4972087;28;45431;-74
2021/11/21 09:00:22;;;;;;;;;20.67;15.67;;;;;8.89;71.96;101105.25;4974423;28;45347;-74
2021/11/21 09:02:49;;;;;;;;;32.33;20.33;;;;;8.94;72.02;101085.78;4978367;28;45860;-75
2021/11/21 09:05:15;;;;;;;;;20.67;18.33;;;;;8.95;71.41;101101.41;4971752;28;46316;-74
2021/11/21 09:07:43;;;;;;;;;22.33;17.00;;;;;8.95;71.60;101101.41;4972129;28;45302;-76
2021/11/21 09:10:12;;;;;;;;;27.67;20.00;;;;;8.97;71.29;101096.94;4970913;28;45418;-72
2021/11/21 09:12:37;;;;;;;;;24.67;22.00;;;;;8.98;71.12;101092.53;4974224;28;45433;-75
2021/11/21 09:15:04;;;;;;;;;23.00;19.67;;;;;8.93;71.49;101095.44;4971566;28;45832;-75
2021/11/21 09:17:30;;;;;;;;;16.00;13.67;;;;;8.90;71.75;101090.41;4972349;28;45494;-75
2021/11/21 09:19:55;;;;;;;;;29.33;20.00;;;;;8.87;71.86;101087.94;4972627;28;45376;-75
2021/11/21 09:22:20;;;;;;;;;25.67;16.67;;;;;8.92;71.98;101083.28;4974918;28;45494;-73
2021/11/21 09:24:46;;;;;;;;;26.33;18.00;;;;;8.99;71.78;101079.34;4974012;28;46145;-74
2021/11/21 09:27:14;;;;;;;;;19.33;18.00;;;;;9.06;71.85;101080.63;4972131;28;45334;-74
2021/11/21 09:29:44;;;;;;;;;28.00;18.00;;;;;9.13;71.81;101070.59;4972187;28;45625;-73
2021/11/21 09:32:11;;;;;;;;;22.33;15.00;;;;;9.18;71.88;101063.28;4972979;28;45462;-73
2021/11/21 09:34:38;;;;;;;;;21.67;18.00;;;;;9.25;71.62;101064.59;4971907;28;47010;-72
2021/11/21 09:37:07;;;;;;;;;20.00;16.67;;;;;9.37;71.56;101072.63;4971920;28;45334;-72
2021/11/21 09:39:35;;;;;;;;;22.67;18.00;;;;;9.46;71.17;101087.78;4976642;28;45246;-73
2021/11/21 09:42:01;;;;;;;;;26.67;17.67;;;;;9.47;71.04;101078.13;4975888;28;45413;-74
2021/11/21 09:44:27;;;;;;;;;27.00;20.33;;;;;9.48;71.01;101085.06;4972151;28;45659;-74
2021/11/21 09:46:52;;;;;;;;;23.67;20.67;;;;;9.50;70.61;101088.44;4971260;28;45384;-72
2021/11/21 09:49:19;;;;;;;;;33.67;22.00;;;;;9.51;70.65;101085.72;4971894;28;45528;-73
2021/11/21 09:51:45;;;;;;;;;25.00;19.00;;;;;9.53;70.79;101093.47;4969182;28;45606;-74
2021/11/21 09:54:11;;;;;;;;;23.33;19.67;;;;;9.52;70.70;101091.78;4970220;28;46656;-74
2021/11/21 09:56:37;;;;;;;;;27.00;19.33;;;;;9.51;70.62;101088.31;4971522;28;45904;-73
2021/11/21 09:59:03;;;;;;;;;32.00;24.00;;;;;9.45;70.67;101077.41;4969708;28;45509;-75
2021/11/21 10:01:38;;;;;;;;;27.00;24.67;;;;;9.49;70.66;101086.75;4972475;28;45586;-74
2021/11/21 10:04:05;;;;;;;;;21.33;16.00;;;;;9.49;71.22;101082.31;4969972;28;47098;-74
2021/11/21 10:06:44;;;;;;;;;26.00;23.67;;;;;9.53;70.47;101077.72;4972599;28;45416;-75
2021/11/21 10:09:10;;;;;;;;;21.33;16.33;;;;;9.56;70.96;101083.63;4972637;28;45386;-74
2021/11/21 10:12:01;;;;;;;;;26.33;22.33;;;;;9.60;70.85;101079.03;4971348;28;45383;-75
2021/11/21 10:14:27;;;;;;;;;29.00;19.33;;;;;9.61;70.68;101088.56;4971522;28;47009;-74
2021/11/21 10:16:53;;;;;;;;;22.00;19.67;;;;;9.60;70.89;101072.94;4971337;28;45612;-76
2021/11/21 10:19:18;;;;;;;;;26.33;20.67;;;;;9.61;70.78;101078.06;4972014;28;45523;-76
2021/11/21 10:21:58;;;;;;;;;32.00;21.33;;;;;9.59;70.57;101072.09;4978861;28;45223;-73
2021/11/21 10:24:31;;;;;;;;;25.00;21.33;;;;;9.65;70.96;101076.97;4968474;28;47523;-71
2021/11/21 10:27:12;;;;;;;;;25.00;20.33;;;;;9.66;70.57;101062.88;4972375;28;45464;-73
2021/11/21 10:29:43;;;;;;;;;31.33;24.67;;;;;9.72;70.69;101067.72;4973465;28;45575;-72
2021/11/21 10:32:24;;;;;;;;;28.00;22.67;;;;;9.74;70.72;101068.47;4972685;28;45402;-74
2021/11/21 10:34:51;;;;;;;;;37.00;30.33;;;;;9.78;70.22;101065.66;4971189;28;47104;-75
2021/11/21 10:37:19;;;;;;;;;28.67;24.33;;;;;9.81;70.11;101061.03;4971897;28;45364;-74
2021/11/21 10:39:46;;;;;;;;;35.67;25.00;;;;;9.85;70.28;101064.31;4982736;28;45394;-74
2021/11/21 10:42:12;;;;;;;;;36.67;28.67;;;;;9.90;70.31;101057.00;4989100;28;45560;-76
2021/11/21 10:44:48;;;;;;;;;28.33;22.00;;;;;9.98;70.07;101062.56;4982600;28;46918;-75
2021/11/21 10:47:13;;;;;;;;;28.33;24.00;;;;;9.99;69.93;101051.13;4970459;28;45348;-74
2021/11/21 10:49:39;;;;;;;;;34.67;23.33;;;;;10.02;69.95;101055.31;4965338;28;45844;-75
2021/11/21 10:52:13;;;;;;;;;31.33;25.00;;;;;10.06;70.05;101046.31;4969228;28;45306;-72
2021/11/21 10:54:51;;;;;;;;;35.50;27.75;;;;;10.07;69.83;101048.81;4968049;28;46497;-75
2021/11/21 10:57:35;;;;;;;;;34.50;30.00;;;;;10.09;69.86;101048.72;4971537;28;45399;-76
2021/11/21 11:00:12;;;;;;;;;40.67;31.00;;;;;10.10;70.16;101050.41;4967801;28;45341;-78
2021/11/21 11:02:43;;;;;;;;;39.00;31.00;;;;;10.10;69.60;101047.78;4966956;28;45477;-77
2021/11/21 11:05:27;;;;;;;;;45.33;34.00;;;;;10.12;70.50;101045.03;4965193;28;46421;-76
2021/11/21 11:07:55;;;;;;;;;38.33;28.33;;;;;10.14;70.06;101041.38;4970754;28;45380;-75
2021/11/21 11:10:31;;;;;;;;;36.67;26.33;;;;;10.16;70.07;101043.88;4982895;28;45361;-74
2021/11/21 11:13:03;;;;;;;;;26.67;23.33;;;;;10.19;69.85;101038.44;4979226;28;45458;-75
2021/11/21 11:15:31;;;;;;;;;37.00;28.67;;;;;10.22;69.59;101046.09;4971257;28;45414;-76